La Riviere, Canada
Current Conditions -  °F | °C
As of 4:15 PM on Saturday 25 Oct 2014 (Local Time) from KD55 Reporting Station
Clear Clear  
Wind Chill: 59°   Ceiling: Unl
Heat Index: 59°   Visibility: 10mi
Dew Point: 19°   Wind: 18mph
Humidity: 22%   Direction: 290°WNW
Pressure: 30.03"   Gusts: NA
Location:  49.24°N, 98.68°W
Report Text: KD55 252115Z AUTO 29016KT 10SM CLR 15/M07 A3003 RMK AO2
Loading
Personal Weather Stations






























Interactive Weather Map
Tropical Storm Tracking
New forecast layout! Learn more

10-Day Weather Forecast

Advertisements
Track Severe Weather on mobile